createdAt,value
2019-03-28T00:00:11.548Z,100110.00
2019-03-28T00:02:46.466Z,100113.00
2019-03-28T00:05:20.506Z,100107.00
2019-03-28T00:07:55.546Z,100113.00
2019-03-28T00:10:28.510Z,100113.00
2019-03-28T00:13:01.307Z,100110.00
2019-03-28T00:15:36.666Z,100108.00
2019-03-28T00:18:10.546Z,100108.00
2019-03-28T00:20:44.646Z,100107.00
2019-03-28T00:23:29.629Z,100111.00
2019-03-28T00:26:03.254Z,100108.00
2019-03-28T00:28:36.974Z,100108.00
2019-03-28T00:31:10.429Z,100103.00
2019-03-28T00:33:49.826Z,100103.00
2019-03-28T00:36:24.586Z,100101.00
2019-03-28T00:38:59.826Z,100101.00
2019-03-28T00:44:06.626Z,100102.00
2019-03-28T00:46:38.587Z,100101.00
2019-03-28T00:49:10.928Z,100106.00
2019-03-28T00:51:46.588Z,100107.00
2019-03-28T00:54:24.006Z,100091.00
2019-03-28T00:56:57.887Z,100105.00
2019-03-28T00:59:31.479Z,100101.00
2019-03-28T01:02:07.066Z,100092.00
2019-03-28T01:04:44.086Z,100100.00
2019-03-28T01:07:18.106Z,100097.00
2019-03-28T01:09:57.254Z,100100.00
2019-03-28T01:12:33.217Z,100102.00
2019-03-28T01:15:09.206Z,100106.00
2019-03-28T01:17:45.226Z,100100.00
2019-03-28T01:20:21.206Z,100103.00
2019-03-28T01:22:56.267Z,100095.00
2019-03-28T01:25:32.086Z,100096.00
2019-03-28T01:28:07.425Z,100112.00
2019-03-28T01:30:41.445Z,100101.00
2019-03-28T01:33:15.405Z,100103.00
2019-03-28T01:35:51.425Z,100105.00
2019-03-28T01:38:25.406Z,100105.00
2019-03-28T01:40:59.406Z,100104.00
2019-03-28T01:43:33.521Z,100100.00
2019-03-28T01:46:07.506Z,100097.00
2019-03-28T01:48:39.386Z,100100.00
2019-03-28T01:51:15.445Z,100105.00
2019-03-28T01:53:49.454Z,100099.00
2019-03-28T01:56:24.997Z,100105.00
2019-03-28T01:58:57.486Z,100101.00
2019-03-28T02:01:34.646Z,100097.00
2019-03-28T02:04:08.686Z,100097.00
2019-03-28T02:06:46.785Z,100092.00
2019-03-28T02:09:20.765Z,100098.00
2019-03-28T02:11:55.785Z,100101.00
2019-03-28T02:14:29.732Z,100097.00
2019-03-28T02:17:03.946Z,100095.00
2019-03-28T02:19:36.847Z,100099.00
2019-03-28T02:22:10.880Z,100101.00
2019-03-28T02:24:45.913Z,100101.00
2019-03-28T02:27:24.265Z,100098.00
2019-03-28T02:29:55.830Z,100097.00
2019-03-28T02:32:33.818Z,100095.00
2019-03-28T02:35:09.077Z,100098.00
2019-03-28T02:37:41.126Z,100094.00
2019-03-28T02:40:15.150Z,100092.00
2019-03-28T02:42:47.948Z,100101.00
2019-03-28T02:45:21.966Z,100091.00
2019-03-28T02:47:55.206Z,100097.00
2019-03-28T02:50:29.969Z,100092.00
2019-03-28T02:53:03.147Z,100094.00
2019-03-28T02:55:39.265Z,100092.00
2019-03-28T02:58:13.286Z,100088.00
2019-03-28T03:00:48.098Z,100091.00
2019-03-28T03:03:22.066Z,100093.00
2019-03-28T03:05:56.066Z,100096.00
2019-03-28T03:08:29.266Z,100092.00
2019-03-28T03:11:03.265Z,100098.00
2019-03-28T03:13:41.446Z,100093.00
2019-03-28T03:16:17.465Z,100102.00
2019-03-28T03:18:51.555Z,100093.00
2019-03-28T03:21:26.526Z,100097.00
2019-03-28T03:23:59.468Z,100091.00
2019-03-28T03:26:31.438Z,100085.00
2019-03-28T03:29:07.671Z,100086.00
2019-03-28T03:31:46.708Z,100090.00
2019-03-28T03:34:23.288Z,100088.00
2019-03-28T03:36:56.678Z,100083.00
2019-03-28T03:39:30.488Z,100079.00
2019-03-28T03:42:04.495Z,100084.00
2019-03-28T03:44:56.448Z,100087.00
2019-03-28T03:47:23.627Z,100092.00
2019-03-28T03:49:50.856Z,100090.00
2019-03-28T03:52:18.112Z,100088.00
2019-03-28T03:54:45.669Z,100091.00
2019-03-28T03:57:13.226Z,100098.00
2019-03-28T03:59:40.566Z,100092.00
2019-03-28T04:02:08.033Z,100091.00
2019-03-28T04:04:35.228Z,100095.00
2019-03-28T04:07:02.746Z,100103.00
2019-03-28T04:09:30.008Z,100107.00
2019-03-28T04:11:57.370Z,100105.00
2019-03-28T04:14:24.596Z,100109.00
2019-03-28T04:16:52.087Z,100104.00
2019-03-28T04:19:19.428Z,100098.00
2019-03-28T04:21:46.668Z,100102.00
2019-03-28T04:24:14.126Z,100106.00
2019-03-28T04:26:41.394Z,100104.00
2019-03-28T04:29:08.628Z,100095.00
2019-03-28T04:31:39.211Z,100096.00
2019-03-28T04:34:08.774Z,100113.00
2019-03-28T04:36:36.439Z,100108.00
2019-03-28T04:39:04.889Z,100116.00
2019-03-28T04:41:32.449Z,100109.00
2019-03-28T04:43:59.634Z,100107.00
2019-03-28T04:46:27.069Z,100115.00
2019-03-28T04:48:54.328Z,100112.00
2019-03-28T04:51:21.766Z,100106.00
2019-03-28T04:53:49.846Z,100113.00
2019-03-28T04:56:17.130Z,100102.00
2019-03-28T04:58:45.077Z,100103.00
2019-03-28T05:01:12.319Z,100107.00
2019-03-28T05:03:39.570Z,100106.00
2019-03-28T05:06:07.349Z,100109.00
2019-03-28T05:08:34.768Z,100114.00
2019-03-28T05:11:02.107Z,100111.00
2019-03-28T05:13:29.454Z,100111.00
2019-03-28T05:15:57.295Z,100110.00
2019-03-28T05:18:25.149Z,100112.00
2019-03-28T05:20:52.366Z,100111.00
2019-03-28T05:23:19.766Z,100109.00
2019-03-28T05:25:47.145Z,100118.00
2019-03-28T05:28:14.623Z,100116.00
2019-03-28T05:30:41.886Z,100115.00
2019-03-28T05:33:09.546Z,100122.00
2019-03-28T05:35:36.807Z,100125.00
2019-03-28T05:38:04.046Z,100126.00
2019-03-28T05:40:31.313Z,100133.00
2019-03-28T05:42:58.546Z,100126.00
2019-03-28T05:45:25.806Z,100129.00
2019-03-28T05:50:22.848Z,100121.00
2019-03-28T05:52:50.138Z,100124.00
2019-03-28T05:55:17.588Z,100131.00
2019-03-28T05:57:44.926Z,100130.00
2019-03-28T06:00:12.907Z,100141.00
2019-03-28T06:02:40.110Z,100139.00
2019-03-28T06:05:07.693Z,100138.00
2019-03-28T06:07:35.093Z,100137.00
2019-03-28T06:10:05.627Z,100139.00
2019-03-28T06:12:32.827Z,100134.00
2019-03-28T06:15:00.414Z,100135.00
2019-03-28T06:17:28.437Z,100140.00
2019-03-28T06:19:57.058Z,100144.00
2019-03-28T06:22:24.206Z,100141.00
2019-03-28T06:24:51.446Z,100136.00
2019-03-28T06:27:18.707Z,100139.00
2019-03-28T06:29:46.046Z,100142.00
2019-03-28T06:32:13.289Z,100141.00
2019-03-28T06:34:40.768Z,100136.00
2019-03-28T06:37:08.330Z,100142.00
2019-03-28T06:39:36.587Z,100141.00
2019-03-28T06:42:04.152Z,100142.00
2019-03-28T06:44:31.386Z,100147.00
2019-03-28T06:46:58.647Z,100139.00
2019-03-28T06:49:25.838Z,100147.00
2019-03-28T06:51:53.167Z,100142.00
2019-03-28T06:54:20.647Z,100141.00
2019-03-28T06:56:48.766Z,100143.00
2019-03-28T06:59:16.146Z,100136.00
2019-03-28T07:01:43.606Z,100128.00
2019-03-28T07:04:11.436Z,100136.00
2019-03-28T07:06:38.706Z,100127.00
2019-03-28T07:09:08.092Z,100132.00
2019-03-28T07:11:35.888Z,100133.00
2019-03-28T07:14:03.676Z,100129.00
2019-03-28T07:16:30.874Z,100122.00
2019-03-28T07:18:58.246Z,100114.00
2019-03-28T07:21:25.506Z,100106.00
2019-03-28T07:23:52.749Z,100108.00
2019-03-28T07:26:20.286Z,100116.00
2019-03-28T07:28:47.767Z,100135.00
2019-03-28T07:31:15.116Z,100141.00
2019-03-28T07:33:42.367Z,100142.00
2019-03-28T07:36:09.827Z,100137.00
2019-03-28T07:38:37.065Z,100134.00
2019-03-28T07:41:04.966Z,100131.00
2019-03-28T07:43:32.286Z,100138.00
2019-03-28T07:45:59.620Z,100133.00
2019-03-28T07:48:27.493Z,100135.00
2019-03-28T07:50:54.866Z,100133.00
2019-03-28T07:53:22.128Z,100141.00
2019-03-28T07:55:49.786Z,100135.00
2019-03-28T07:58:17.226Z,100142.00
2019-03-28T08:00:44.490Z,100147.00
2019-03-28T08:03:11.825Z,100147.00
2019-03-28T08:05:39.446Z,100147.00
2019-03-28T08:08:07.066Z,100142.00
2019-03-28T08:10:34.406Z,100145.00
2019-03-28T08:13:01.866Z,100141.00
2019-03-28T08:15:29.227Z,100141.00
2019-03-28T08:17:58.346Z,100140.00
2019-03-28T08:20:25.745Z,100130.00
2019-03-28T08:22:53.026Z,100121.00
2019-03-28T08:25:20.248Z,100120.00
2019-03-28T08:27:47.625Z,100115.00
2019-03-28T08:30:18.776Z,100121.00
2019-03-28T08:32:44.870Z,100120.00
2019-03-28T08:35:12.666Z,100123.00
2019-03-28T08:37:40.967Z,100123.00
2019-03-28T08:40:09.085Z,100137.00
2019-03-28T08:42:36.465Z,100133.00
2019-03-28T08:45:07.392Z,100142.00
2019-03-28T08:47:34.629Z,100132.00
2019-03-28T08:50:02.365Z,100136.00
2019-03-28T08:52:29.745Z,100141.00
2019-03-28T08:54:57.546Z,100129.00
2019-03-28T08:57:24.870Z,100136.00
2019-03-28T09:02:37.206Z,100117.00
2019-03-28T09:05:05.489Z,100112.00
2019-03-28T09:07:33.086Z,100109.00
2019-03-28T09:10:01.089Z,100111.00
2019-03-28T09:12:28.349Z,100118.00
2019-03-28T09:14:55.804Z,100111.00
2019-03-28T09:17:23.936Z,100104.00
2019-03-28T09:19:51.356Z,100105.00
2019-03-28T09:22:18.588Z,100103.00
2019-03-28T09:24:45.848Z,100094.00
2019-03-28T09:27:13.290Z,100093.00
2019-03-28T09:29:40.750Z,100098.00
2019-03-28T09:32:07.998Z,100084.00
2019-03-28T09:34:35.384Z,100089.00
2019-03-28T09:37:02.604Z,100097.00
2019-03-28T09:39:29.963Z,100098.00
2019-03-28T09:41:57.223Z,100098.00
2019-03-28T09:44:25.082Z,100096.00
2019-03-28T09:46:52.743Z,100104.00
2019-03-28T09:49:20.283Z,100108.00
2019-03-28T09:51:47.549Z,100114.00
2019-03-28T09:54:15.107Z,100123.00
2019-03-28T09:56:42.382Z,100113.00
2019-03-28T09:59:09.803Z,100107.00
2019-03-28T10:01:37.165Z,100110.00
2019-03-28T10:04:06.427Z,100105.00
2019-03-28T10:06:34.157Z,100107.00
2019-03-28T10:09:01.486Z,100105.00
2019-03-28T10:11:28.963Z,100102.00
2019-03-28T10:13:56.382Z,100105.00
2019-03-28T10:16:23.744Z,100101.00
2019-03-28T10:18:51.564Z,100115.00
2019-03-28T10:21:18.966Z,100109.00
2019-03-28T10:23:47.145Z,100098.00
2019-03-28T10:26:14.503Z,100100.00
2019-03-28T10:28:41.744Z,100092.00
2019-03-28T10:31:16.310Z,100091.00
2019-03-28T10:33:38.410Z,100091.00
2019-03-28T10:36:05.991Z,100084.00
2019-03-28T10:38:33.539Z,100073.00
2019-03-28T10:41:01.072Z,100070.00
2019-03-28T10:43:28.692Z,100088.00
2019-03-28T10:45:56.191Z,100089.00
2019-03-28T10:48:23.672Z,100082.00
2019-03-28T10:50:51.055Z,100081.00
2019-03-28T10:53:18.475Z,100094.00
2019-03-28T10:55:45.711Z,100079.00
2019-03-28T10:58:18.568Z,100081.00
2019-03-28T11:00:42.993Z,100079.00
2019-03-28T11:03:10.412Z,100065.00
2019-03-28T11:05:37.911Z,100067.00
2019-03-28T11:08:05.394Z,100070.00
2019-03-28T11:10:32.814Z,100068.00
2019-03-28T11:13:00.232Z,100074.00
2019-03-28T11:15:27.831Z,100057.00
2019-03-28T11:17:55.166Z,100062.00
2019-03-28T11:20:22.804Z,100057.00
2019-03-28T11:22:50.511Z,100051.00
2019-03-28T11:25:18.390Z,100057.00
2019-03-28T11:27:45.908Z,100049.00
2019-03-28T11:30:13.992Z,100054.00
2019-03-28T11:32:41.548Z,100045.00
2019-03-28T11:35:09.130Z,100040.00
2019-03-28T11:37:49.628Z,100026.00
2019-03-28T11:40:17.428Z,100028.00
2019-03-28T11:42:45.089Z,100037.00
2019-03-28T11:45:12.756Z,100045.00
2019-03-28T11:47:40.208Z,100041.00
2019-03-28T11:50:09.728Z,100032.00
2019-03-28T11:52:37.168Z,100036.00
2019-03-28T11:55:10.389Z,100034.00
2019-03-28T11:57:37.770Z,100034.00
2019-03-28T12:00:12.370Z,100028.00
2019-03-28T12:02:39.930Z,100037.00
2019-03-28T12:05:07.968Z,100032.00
2019-03-28T12:07:35.249Z,100030.00
2019-03-28T12:10:05.807Z,100020.00
2019-03-28T12:12:33.713Z,100021.00
2019-03-28T12:15:01.536Z,100027.00
2019-03-28T12:17:28.928Z,100021.00
2019-03-28T12:19:56.691Z,100013.00
2019-03-28T12:22:23.930Z,100012.00
2019-03-28T12:24:51.514Z,100018.00
2019-03-28T12:27:19.173Z,100017.00
2019-03-28T12:29:46.628Z,100009.00
2019-03-28T12:32:14.661Z,100011.00
2019-03-28T12:34:42.448Z,100001.00
2019-03-28T12:37:10.815Z,100001.00
2019-03-28T12:39:38.491Z,100001.00
2019-03-28T12:42:05.848Z,99995.00
2019-03-28T12:44:33.092Z,99996.00
2019-03-28T12:47:00.388Z,99996.00
2019-03-28T12:49:28.407Z,99990.00
2019-03-28T12:51:55.768Z,99994.00
2019-03-28T12:54:23.887Z,99990.00
2019-03-28T12:56:51.288Z,99991.00
2019-03-28T12:59:18.648Z,99982.00
2019-03-28T13:01:46.209Z,99989.00
2019-03-28T13:04:14.429Z,99979.00
2019-03-28T13:06:42.012Z,99981.00
2019-03-28T13:09:10.184Z,99980.00
2019-03-28T13:11:37.803Z,99982.00
2019-03-28T13:14:05.509Z,99982.00
2019-03-28T13:16:32.784Z,99985.00
2019-03-28T13:19:00.056Z,99975.00
2019-03-28T13:21:27.497Z,99982.00
2019-03-28T13:23:54.737Z,99975.00
2019-03-28T13:26:22.138Z,99983.00
2019-03-28T13:28:49.451Z,99977.00
2019-03-28T13:31:16.577Z,99985.00
2019-03-28T13:33:44.195Z,99978.00
2019-03-28T13:36:11.682Z,99981.00
2019-03-28T13:38:39.057Z,99977.00
2019-03-28T13:41:06.317Z,99987.00
2019-03-28T13:43:33.616Z,99973.00
2019-03-28T13:46:00.915Z,99973.00
2019-03-28T13:48:28.475Z,99975.00
2019-03-28T13:50:55.636Z,99971.00
2019-03-28T13:53:23.161Z,99965.00
2019-03-28T13:55:52.211Z,99966.00
2019-03-28T13:58:19.757Z,99960.00
2019-03-28T14:00:47.296Z,99958.00
2019-03-28T14:03:14.363Z,99955.00
2019-03-28T14:05:42.096Z,99952.00
2019-03-28T14:08:09.456Z,99952.00
2019-03-28T14:10:37.082Z,99954.00
2019-03-28T14:13:04.757Z,99941.00
2019-03-28T14:15:32.033Z,99945.00
2019-03-28T14:17:59.196Z,99952.00
2019-03-28T14:20:26.495Z,99951.00
2019-03-28T14:22:53.801Z,99949.00
2019-03-28T14:25:21.026Z,99947.00
2019-03-28T14:27:48.199Z,99944.00
2019-03-28T14:30:15.816Z,99949.00
2019-03-28T14:32:53.271Z,99948.00
2019-03-28T14:35:12.303Z,99946.00
2019-03-28T14:37:40.859Z,99945.00
2019-03-28T14:40:10.899Z,99945.00
2019-03-28T14:42:38.240Z,99945.00
2019-03-28T14:45:07.399Z,99945.00
2019-03-28T14:47:34.665Z,99945.00
2019-03-28T14:50:01.976Z,99943.00
2019-03-28T14:52:29.223Z,99944.00
2019-03-28T14:54:56.421Z,99937.00
2019-03-28T14:57:24.191Z,99937.00
2019-03-28T14:59:52.961Z,99939.00
2019-03-28T15:02:20.158Z,99940.00
2019-03-28T15:04:47.404Z,99939.00
2019-03-28T15:07:15.019Z,99946.00
2019-03-28T15:09:42.227Z,99942.00
2019-03-28T15:12:10.359Z,99944.00
2019-03-28T15:14:37.739Z,99953.00
2019-03-28T15:17:04.972Z,99956.00
2019-03-28T15:19:32.233Z,99953.00
2019-03-28T15:21:59.395Z,99955.00
2019-03-28T15:24:26.877Z,99956.00
2019-03-28T15:26:54.808Z,99954.00
2019-03-28T15:29:22.329Z,99952.00
2019-03-28T15:31:49.972Z,99953.00
2019-03-28T15:34:17.566Z,99961.00
2019-03-28T15:36:44.699Z,99951.00
2019-03-28T15:39:14.069Z,99945.00
2019-03-28T15:41:41.476Z,99945.00
2019-03-28T15:44:09.262Z,99933.00
2019-03-28T15:46:36.701Z,99938.00
2019-03-28T15:49:04.503Z,99943.00
2019-03-28T15:51:31.821Z,99949.00
2019-03-28T15:53:59.062Z,99943.00
2019-03-28T15:56:26.471Z,99956.00
2019-03-28T15:58:54.225Z,99949.00
2019-03-28T16:01:21.480Z,99954.00
2019-03-28T16:03:53.318Z,99945.00
2019-03-28T16:06:17.916Z,99945.00
2019-03-28T16:08:45.274Z,99948.00
2019-03-28T16:11:12.451Z,99948.00
2019-03-28T16:13:39.614Z,99944.00
2019-03-28T16:16:06.833Z,99955.00
2019-03-28T16:18:34.045Z,99966.00
2019-03-28T16:21:01.516Z,99951.00
2019-03-28T16:23:29.493Z,99958.00
2019-03-28T16:25:57.023Z,99969.00
2019-03-28T16:28:27.807Z,99960.00
2019-03-28T16:30:53.877Z,99968.00
2019-03-28T16:33:21.143Z,99967.00
2019-03-28T16:35:48.319Z,99971.00
2019-03-28T16:38:15.843Z,99968.00
2019-03-28T16:40:43.404Z,99975.00
2019-03-28T16:43:11.163Z,99973.00
2019-03-28T16:45:38.300Z,99966.00
2019-03-28T16:50:28.100Z,99976.00
2019-03-28T16:52:55.304Z,99972.00
2019-03-28T16:55:26.522Z,99972.00
2019-03-28T16:57:51.586Z,99967.00
2019-03-28T17:00:20.924Z,99971.00
2019-03-28T17:02:48.461Z,99973.00
2019-03-28T17:05:15.860Z,99976.00
2019-03-28T17:07:44.150Z,99983.00
2019-03-28T17:10:19.396Z,99984.00
2019-03-28T17:12:46.614Z,99977.00
2019-03-28T17:15:13.880Z,99984.00
2019-03-28T17:17:41.084Z,99986.00
2019-03-28T17:20:08.423Z,99990.00
2019-03-28T17:22:35.863Z,99989.00
2019-03-28T17:25:04.500Z,99985.00
2019-03-28T17:27:31.742Z,99991.00
2019-03-28T17:29:58.871Z,99983.00
2019-03-28T17:32:26.021Z,99991.00
2019-03-28T17:37:23.437Z,100000.00
2019-03-28T17:39:50.699Z,100003.00
2019-03-28T17:42:17.906Z,100004.00
2019-03-28T17:44:45.140Z,100007.00
2019-03-28T17:47:12.368Z,100003.00
2019-03-28T17:49:39.560Z,100011.00
2019-03-28T17:52:06.640Z,100012.00
2019-03-28T17:54:33.733Z,100026.00
2019-03-28T17:57:01.300Z,100014.00
2019-03-28T17:59:28.500Z,100022.00
2019-03-28T18:01:55.635Z,100025.00
2019-03-28T18:04:23.466Z,100026.00
2019-03-28T18:06:51.064Z,100027.00
2019-03-28T18:09:18.873Z,100022.00
2019-03-28T18:11:46.038Z,100031.00
2019-03-28T18:14:13.273Z,100039.00
2019-03-28T18:16:40.592Z,100035.00
2019-03-28T18:19:07.883Z,100040.00
2019-03-28T18:21:35.523Z,100036.00
2019-03-28T18:24:03.268Z,100038.00
2019-03-28T18:26:30.863Z,100040.00
2019-03-28T18:28:58.523Z,100044.00
2019-03-28T18:31:25.771Z,100056.00
2019-03-28T18:33:53.018Z,100047.00
2019-03-28T18:36:20.822Z,100054.00
2019-03-28T18:38:48.043Z,100051.00
2019-03-28T18:41:15.243Z,100058.00
2019-03-28T18:43:42.863Z,100060.00
2019-03-28T18:46:10.102Z,100062.00
2019-03-28T18:48:38.374Z,100063.00
2019-03-28T18:51:06.268Z,100061.00
2019-03-28T18:53:33.409Z,100067.00
2019-03-28T18:56:00.610Z,100063.00
2019-03-28T18:58:27.789Z,100067.00
2019-03-28T19:00:55.057Z,100061.00
2019-03-28T19:03:22.238Z,100061.00
2019-03-28T19:05:49.396Z,100073.00
2019-03-28T19:08:16.516Z,100065.00
2019-03-28T19:10:43.751Z,100061.00
2019-03-28T19:13:10.929Z,100070.00
2019-03-28T19:15:38.129Z,100066.00
2019-03-28T19:18:05.789Z,100070.00
2019-03-28T19:20:33.402Z,100082.00
2019-03-28T19:23:01.148Z,100079.00
2019-03-28T19:25:28.365Z,100086.00
2019-03-28T19:27:56.332Z,100084.00
2019-03-28T19:30:32.729Z,100085.00
2019-03-28T19:33:00.073Z,100089.00
2019-03-28T19:35:33.113Z,100091.00
2019-03-28T19:37:58.048Z,100092.00
2019-03-28T19:40:25.889Z,100091.00
2019-03-28T19:42:53.469Z,100102.00
2019-03-28T19:45:35.693Z,100105.00
2019-03-28T19:48:03.075Z,100104.00
2019-03-28T19:50:30.508Z,100102.00
2019-03-28T19:52:58.049Z,100104.00
2019-03-28T19:55:25.588Z,100106.00
2019-03-28T19:57:52.862Z,100105.00
2019-03-28T20:00:20.256Z,100113.00
2019-03-28T20:02:47.758Z,100105.00
2019-03-28T20:05:14.897Z,100104.00
2019-03-28T20:07:45.710Z,100106.00
2019-03-28T20:10:16.622Z,100102.00
2019-03-28T20:12:41.837Z,100102.00
2019-03-28T20:15:09.998Z,100100.00
2019-03-28T20:17:37.197Z,100097.00
2019-03-28T20:20:07.916Z,100103.00
2019-03-28T20:22:35.138Z,100107.00
2019-03-28T20:25:03.736Z,100112.00
2019-03-28T20:27:31.876Z,100118.00
2019-03-28T20:30:00.892Z,100115.00
2019-03-28T20:32:28.595Z,100116.00
2019-03-28T20:34:56.193Z,100118.00
2019-03-28T20:37:23.856Z,100120.00
2019-03-28T20:39:51.059Z,100123.00
2019-03-28T20:42:18.343Z,100120.00
2019-03-28T20:44:46.200Z,100126.00
2019-03-28T20:47:13.878Z,100126.00
2019-03-28T20:49:41.062Z,100133.00
2019-03-28T20:52:09.667Z,100126.00
2019-03-28T20:54:37.228Z,100117.00
2019-03-28T20:57:04.488Z,100121.00
2019-03-28T20:59:31.988Z,100123.00
2019-03-28T21:01:59.134Z,100123.00
2019-03-28T21:04:31.479Z,100129.00
2019-03-28T21:06:55.852Z,100128.00
2019-03-28T21:09:23.429Z,100132.00
2019-03-28T21:11:51.936Z,100138.00
2019-03-28T21:14:19.335Z,100142.00
2019-03-28T21:16:46.695Z,100141.00
2019-03-28T21:19:14.395Z,100147.00
2019-03-28T21:21:44.537Z,100142.00
2019-03-28T21:24:11.775Z,100151.00
2019-03-28T21:26:38.935Z,100145.00
2019-03-28T21:29:06.476Z,100143.00
2019-03-28T21:31:33.795Z,100141.00
2019-03-28T21:34:01.271Z,100145.00
2019-03-28T21:36:30.031Z,100145.00
2019-03-28T21:38:57.677Z,100143.00
2019-03-28T21:41:25.138Z,100143.00
2019-03-28T21:43:52.416Z,100147.00
2019-03-28T21:46:19.656Z,100134.00
2019-03-28T21:48:46.818Z,100140.00
2019-03-28T21:51:14.058Z,100143.00
2019-03-28T21:53:41.396Z,100139.00
2019-03-28T21:56:08.658Z,100142.00
2019-03-28T21:58:36.036Z,100137.00
2019-03-28T22:01:03.255Z,100146.00
2019-03-28T22:03:30.935Z,100147.00
2019-03-28T22:08:26.375Z,100141.00
2019-03-28T22:10:53.535Z,100139.00
2019-03-28T22:13:21.268Z,100150.00
2019-03-28T22:15:49.336Z,100152.00
2019-03-28T22:18:17.296Z,100148.00
2019-03-28T22:20:44.692Z,100158.00
2019-03-28T22:23:13.727Z,100146.00
2019-03-28T22:25:41.396Z,100153.00
2019-03-28T22:28:08.856Z,100151.00
2019-03-28T22:30:36.117Z,100154.00
2019-03-28T22:33:03.357Z,100148.00
2019-03-28T22:37:57.975Z,100144.00
2019-03-28T22:40:25.399Z,100144.00
2019-03-28T22:42:52.695Z,100136.00
2019-03-28T22:45:19.916Z,100140.00
2019-03-28T22:47:47.376Z,100133.00
2019-03-28T22:50:14.935Z,100140.00
2019-03-28T22:52:42.678Z,100135.00
2019-03-28T22:55:10.995Z,100134.00
2019-03-28T22:57:38.349Z,100139.00
2019-03-28T23:00:10.456Z,100138.00
2019-03-28T23:02:38.396Z,100139.00
2019-03-28T23:05:06.995Z,100147.00
2019-03-28T23:07:34.295Z,100147.00
2019-03-28T23:10:01.641Z,100154.00
2019-03-28T23:12:29.516Z,100146.00
2019-03-28T23:14:56.638Z,100136.00
2019-03-28T23:17:23.915Z,100147.00
2019-03-28T23:19:51.875Z,100147.00
2019-03-28T23:22:19.562Z,100149.00
2019-03-28T23:24:46.695Z,100141.00
2019-03-28T23:27:14.495Z,100148.00
2019-03-28T23:29:41.956Z,100153.00
2019-03-28T23:32:09.476Z,100147.00
2019-03-28T23:34:36.617Z,100143.00
2019-03-28T23:37:03.978Z,100137.00
2019-03-28T23:39:31.317Z,100139.00
2019-03-28T23:41:58.516Z,100142.00
2019-03-28T23:44:25.715Z,100143.00
2019-03-28T23:46:53.005Z,100146.00
2019-03-28T23:49:20.455Z,100149.00
2019-03-28T23:51:48.196Z,100147.00
2019-03-28T23:54:15.863Z,100157.00
2019-03-28T23:56:43.216Z,100151.00
2019-03-28T23:59:10.908Z,100148.00
